Time;durP1;ratioP1;P1;durP2;ratioP2;P2;SDS_P1;SDS_P2;PMS_P1;PMS_P2;Temp;Humidity;BMP_temperature;BMP_pressure;BME280_temperature;BME280_humidity;BME280_pressure;Samples;Min_cycle;Max_cycle;Signal;HPM_P1;HPM_P2
2023/09/15 00:01:02;;;;;;;13.98;9.18;;;;;;;;;;5035369;28;20495;-78
2023/09/15 00:03:29;;;;;;;14.27;8.98;;;;;;;;;;5035678;28;20041;-77
2023/09/15 00:05:57;;;;;;;11.02;9.43;;;;;;;;;;5035394;28;20380;-76
2023/09/15 00:08:24;;;;;;;11.80;8.90;;;;;;;;;;5035342;28;20045;-77
2023/09/15 00:10:52;;;;;;;20.35;9.27;;;;;;;;;;5033846;28;20049;-77
2023/09/15 00:13:19;;;;;;;16.65;9.07;;;;;;;;;;5035200;28;20041;-77
2023/09/15 00:15:51;;;;;;;13.05;8.75;;;;;;;;;;5035292;28;20099;-77
2023/09/15 00:18:19;;;;;;;14.25;9.13;;;;;;;;;;5035191;28;21023;-76
2023/09/15 00:20:47;;;;;;;15.23;9.70;;;;;;;;;;5035032;28;20683;-76
2023/09/15 00:23:15;;;;;;;11.63;9.10;;;;;;;;;;5035092;28;20084;-77
2023/09/15 00:25:45;;;;;;;14.52;8.82;;;;;;;;;;5034923;28;20037;-76
2023/09/15 00:28:13;;;;;;;14.82;8.88;;;;;;;;;;5035023;28;20037;-76
2023/09/15 00:30:40;;;;;;;16.77;8.80;;;;;;;;;;5035055;28;20495;-77
2023/09/15 00:33:08;;;;;;;13.70;8.30;;;;;;;;;;5033194;28;20053;-77
2023/09/15 00:35:36;;;;;;;12.02;8.80;;;;;;;;;;5034721;28;20038;-76
2023/09/15 00:38:03;;;;;;;15.35;9.20;;;;;;;;;;5034494;28;20071;-76
2023/09/15 00:40:31;;;;;;;14.15;9.07;;;;;;;;;;5033193;28;20046;-77
2023/09/15 00:42:58;;;;;;;13.52;8.80;;;;;;;;;;5033297;28;20096;-77
2023/09/15 00:45:26;;;;;;;14.15;9.50;;;;;;;;;;5034483;28;20041;-76
2023/09/15 00:47:58;;;;;;;12.57;8.85;;;;;;;;;;5033078;28;20104;-76
2023/09/15 00:50:31;;;;;;;12.50;9.13;;;;;;;;;;5033287;28;20510;-76
2023/09/15 00:53:08;;;;;;;11.15;8.75;;;;;;;;;;5033132;28;20057;-76
2023/09/15 00:55:36;;;;;;;13.07;9.40;;;;;;;;;;5016612;28;20128;-77
2023/09/15 00:58:08;;;;;;;13.52;8.63;;;;;;;;;;5033297;28;20052;-77
2023/09/15 01:00:37;;;;;;;10.85;9.18;;;;;;;;;;5016513;28;20037;-77
2023/09/15 01:03:05;;;;;;;13.48;9.20;;;;;;;;;;5034480;28;20399;-77
2023/09/15 01:05:33;;;;;;;12.43;9.00;;;;;;;;;;5034055;28;20045;-77
2023/09/15 01:08:00;;;;;;;13.48;9.30;;;;;;;;;;5032516;28;20450;-77
2023/09/15 01:10:28;;;;;;;12.27;8.52;;;;;;;;;;5032614;28;20488;-77
2023/09/15 01:12:55;;;;;;;10.77;9.02;;;;;;;;;;5032340;28;20038;-76
2023/09/15 01:15:27;;;;;;;12.13;9.25;;;;;;;;;;5033663;28;20065;-76
2023/09/15 01:18:18;;;;;;;13.65;9.00;;;;;;;;;;5033408;28;20100;-76
2023/09/15 01:21:05;;;;;;;14.85;8.98;;;;;;;;;;5032906;28;20072;-77
2023/09/15 01:23:51;;;;;;;11.18;9.27;;;;;;;;;;5032240;28;20073;-77
2023/09/15 01:26:30;;;;;;;15.30;9.73;;;;;;;;;;5033671;28;20049;-77
2023/09/15 01:28:58;;;;;;;11.88;8.70;;;;;;;;;;5032860;28;20051;-76
2023/09/15 01:31:27;;;;;;;13.68;9.13;;;;;;;;;;5033844;28;20395;-77
2023/09/15 01:33:57;;;;;;;12.60;9.23;;;;;;;;;;5032059;28;20052;-76
2023/09/15 01:36:25;;;;;;;13.88;8.88;;;;;;;;;;5033159;28;20125;-77
2023/09/15 01:38:53;;;;;;;13.18;9.68;;;;;;;;;;5032785;28;20430;-76
2023/09/15 01:41:21;;;;;;;13.13;8.98;;;;;;;;;;5031241;28;20103;-77
2023/09/15 01:43:51;;;;;;;12.20;9.43;;;;;;;;;;5033068;28;20037;-76
2023/09/15 01:46:23;;;;;;;14.00;9.48;;;;;;;;;;5031336;28;20049;-77
2023/09/15 01:48:55;;;;;;;15.30;8.52;;;;;;;;;;5031703;28;20033;-78
2023/09/15 01:51:23;;;;;;;13.48;9.18;;;;;;;;;;5031139;28;20050;-77
2023/09/15 01:53:51;;;;;;;14.70;8.70;;;;;;;;;;5031288;28;20038;-77
2023/09/15 01:56:20;;;;;;;17.75;9.05;;;;;;;;;;5031391;28;20037;-77
2023/09/15 01:58:48;;;;;;;13.40;8.88;;;;;;;;;;5031140;28;20091;-76
2023/09/15 02:01:16;;;;;;;13.88;8.80;;;;;;;;;;5031167;28;20068;-77
2023/09/15 02:03:43;;;;;;;12.00;8.55;;;;;;;;;;5031323;28;20040;-78
2023/09/15 02:06:16;;;;;;;13.65;8.95;;;;;;;;;;5031098;28;20037;-78
2023/09/15 02:08:44;;;;;;;14.63;8.52;;;;;;;;;;5031032;28;20492;-77
2023/09/15 02:11:13;;;;;;;12.68;8.65;;;;;;;;;;5031143;28;20128;-76
2023/09/15 02:13:41;;;;;;;12.18;8.23;;;;;;;;;;5035111;28;20488;-78
2023/09/15 02:16:08;;;;;;;12.02;8.63;;;;;;;;;;5035258;28;20395;-77
2023/09/15 02:18:36;;;;;;;10.95;8.40;;;;;;;;;;5035153;28;20053;-78
2023/09/15 02:21:04;;;;;;;12.07;8.13;;;;;;;;;;5035479;28;20045;-76
2023/09/15 02:23:31;;;;;;;14.55;8.18;;;;;;;;;;5036453;28;20495;-78
2023/09/15 02:26:02;;;;;;;12.85;7.90;;;;;;;;;;5035741;28;20049;-77
2023/09/15 02:28:31;;;;;;;9.70;7.95;;;;;;;;;;5036860;28;20047;-77
2023/09/15 02:30:58;;;;;;;13.38;7.93;;;;;;;;;;5035633;28;20051;-77
2023/09/15 02:33:26;;;;;;;14.43;8.38;;;;;;;;;;5036900;28;20048;-77
2023/09/15 02:35:53;;;;;;;10.00;7.85;;;;;;;;;;5035429;28;20056;-77
2023/09/15 02:38:21;;;;;;;9.80;8.10;;;;;;;;;;5035422;28;20063;-78
2023/09/15 02:40:49;;;;;;;12.93;7.80;;;;;;;;;;5035312;28;20458;-77
2023/09/15 02:43:17;;;;;;;10.57;7.68;;;;;;;;;;5035484;28;20112;-77
2023/09/15 02:45:44;;;;;;;10.82;7.20;;;;;;;;;;5036704;28;20124;-77
2023/09/15 02:48:13;;;;;;;9.23;7.38;;;;;;;;;;5035204;28;20056;-77
2023/09/15 02:50:42;;;;;;;11.68;8.23;;;;;;;;;;5035063;28;20041;-77
2023/09/15 02:53:11;;;;;;;14.10;7.68;;;;;;;;;;5035103;28;20041;-76
2023/09/15 02:55:38;;;;;;;10.40;7.43;;;;;;;;;;5035490;28;20052;-78
2023/09/15 02:58:06;;;;;;;13.52;8.20;;;;;;;;;;5035245;28;20047;-77
2023/09/15 03:00:34;;;;;;;11.90;7.65;;;;;;;;;;5036389;28;20033;-77
2023/09/15 03:03:01;;;;;;;10.65;7.63;;;;;;;;;;5034946;28;20132;-77
2023/09/15 03:05:29;;;;;;;10.35;7.03;;;;;;;;;;5035011;28;20051;-78
2023/09/15 03:07:56;;;;;;;10.73;7.60;;;;;;;;;;5035085;28;20495;-78
2023/09/15 03:10:24;;;;;;;10.43;7.75;;;;;;;;;;5035709;28;20048;-78
2023/09/15 03:12:52;;;;;;;12.52;7.78;;;;;;;;;;5034236;28;20065;-77
2023/09/15 03:15:19;;;;;;;10.43;7.55;;;;;;;;;;5034825;28;20048;-78
2023/09/15 03:17:47;;;;;;;8.77;7.13;;;;;;;;;;5034606;28;20045;-77
2023/09/15 03:20:19;;;;;;;9.38;7.20;;;;;;;;;;5034355;28;20076;-77
2023/09/15 03:22:47;;;;;;;10.43;7.10;;;;;;;;;;5035248;28;20376;-76
2023/09/15 03:25:14;;;;;;;11.15;7.18;;;;;;;;;;5036255;28;20506;-77
2023/09/15 03:27:42;;;;;;;13.80;7.00;;;;;;;;;;5034875;28;20049;-76
2023/09/15 03:30:10;;;;;;;14.90;7.60;;;;;;;;;;5035759;28;20048;-77
2023/09/15 03:32:38;;;;;;;9.80;6.85;;;;;;;;;;5034449;28;20136;-77
2023/09/15 03:35:06;;;;;;;10.35;7.20;;;;;;;;;;5036044;28;20033;-77
2023/09/15 03:37:35;;;;;;;13.02;7.28;;;;;;;;;;5034121;28;20045;-76
2023/09/15 03:40:05;;;;;;;12.00;7.25;;;;;;;;;;5034263;28;20525;-76
2023/09/15 03:42:34;;;;;;;12.82;7.13;;;;;;;;;;5026281;28;20142;-78
2023/09/15 03:45:01;;;;;;;13.40;7.15;;;;;;;;;;5015780;28;20034;-75
2023/09/15 03:47:29;;;;;;;8.80;6.30;;;;;;;;;;5014122;28;20415;-75
2023/09/15 03:49:56;;;;;;;8.55;6.45;;;;;;;;;;5014500;28;20042;-75
2023/09/15 03:52:24;;;;;;;10.55;6.45;;;;;;;;;;4997973;28;20129;-76
2023/09/15 03:54:52;;;;;;;9.88;7.05;;;;;;;;;;5013720;28;20048;-76
2023/09/15 03:57:19;;;;;;;9.77;7.35;;;;;;;;;;5013670;28;20049;-74
2023/09/15 03:59:47;;;;;;;9.10;6.80;;;;;;;;;;5013542;28;20392;-74
2023/09/15 04:02:15;;;;;;;11.70;7.43;;;;;;;;;;5018166;28;20504;-73
2023/09/15 04:04:42;;;;;;;14.45;7.65;;;;;;;;;;5032754;28;20037;-73
2023/09/15 04:07:10;;;;;;;11.27;7.85;;;;;;;;;;5033917;28;20110;-72
2023/09/15 04:09:37;;;;;;;11.15;7.88;;;;;;;;;;5033167;28;20069;-73
2023/09/15 04:12:05;;;;;;;9.38;7.38;;;;;;;;;;5032881;28;20041;-71
2023/09/15 04:14:34;;;;;;;13.55;7.47;;;;;;;;;;5032991;28;20045;-72
2023/09/15 04:17:03;;;;;;;10.57;7.15;;;;;;;;;;5033078;28;20055;-72
2023/09/15 04:19:32;;;;;;;12.45;7.32;;;;;;;;;;5033015;28;20045;-72
2023/09/15 04:22:00;;;;;;;15.82;7.28;;;;;;;;;;5032972;28;20496;-72
2023/09/15 04:24:27;;;;;;;11.95;6.85;;;;;;;;;;5032763;28;20046;-72
2023/09/15 04:26:55;;;;;;;14.57;7.13;;;;;;;;;;5032857;28;20041;-71
2023/09/15 04:29:22;;;;;;;12.18;7.20;;;;;;;;;;5033200;28;20125;-72
2023/09/15 04:31:51;;;;;;;12.27;7.43;;;;;;;;;;5032538;28;20514;-74
2023/09/15 04:34:19;;;;;;;15.50;7.68;;;;;;;;;;5032060;28;20049;-71
2023/09/15 04:36:46;;;;;;;15.45;7.25;;;;;;;;;;5032595;28;20041;-71
2023/09/15 04:39:15;;;;;;;13.63;7.30;;;;;;;;;;5032460;28;20058;-72
2023/09/15 04:41:44;;;;;;;17.55;7.53;;;;;;;;;;5032621;28;20046;-71
2023/09/15 04:44:11;;;;;;;21.65;7.93;;;;;;;;;;5032687;28;20045;-71
2023/09/15 04:46:39;;;;;;;16.58;8.13;;;;;;;;;;5033858;28;20113;-71
2023/09/15 04:49:07;;;;;;;11.75;7.10;;;;;;;;;;5032350;28;20135;-71
2023/09/15 04:51:34;;;;;;;13.80;7.63;;;;;;;;;;5032353;28;20067;-71
2023/09/15 04:54:02;;;;;;;10.18;7.30;;;;;;;;;;5031960;28;20129;-71
2023/09/15 04:56:31;;;;;;;13.27;7.50;;;;;;;;;;5032152;28;20033;-71
2023/09/15 04:58:59;;;;;;;10.82;7.40;;;;;;;;;;5033428;28;20076;-72
2023/09/15 05:01:26;;;;;;;12.48;7.25;;;;;;;;;;5032347;28;20490;-72
2023/09/15 05:03:54;;;;;;;10.15;7.28;;;;;;;;;;5032227;28;20103;-71
2023/09/15 05:06:22;;;;;;;11.90;7.28;;;;;;;;;;5032216;28;20045;-72
2023/09/15 05:08:50;;;;;;;11.85;6.97;;;;;;;;;;5032186;28;20061;-71
2023/09/15 05:11:18;;;;;;;13.30;7.32;;;;;;;;;;5032040;28;20052;-71
2023/09/15 05:13:46;;;;;;;9.73;7.15;;;;;;;;;;5032278;28;20045;-71
2023/09/15 05:16:16;;;;;;;8.45;7.28;;;;;;;;;;5032017;28;20497;-71
2023/09/15 05:18:45;;;;;;;12.52;7.60;;;;;;;;;;5031910;28;20049;-71
2023/09/15 05:21:12;;;;;;;13.88;7.57;;;;;;;;;;5031832;28;20136;-71
2023/09/15 05:23:40;;;;;;;12.20;7.25;;;;;;;;;;5033163;28;20045;-72
2023/09/15 05:26:08;;;;;;;13.93;7.22;;;;;;;;;;5031778;28;20045;-72
2023/09/15 05:28:36;;;;;;;10.45;7.10;;;;;;;;;;5031871;28;20107;-72
2023/09/15 05:31:04;;;;;;;18.92;7.72;;;;;;;;;;5031744;28;20033;-72
2023/09/15 05:33:32;;;;;;;14.75;7.55;;;;;;;;;;5031911;28;20052;-72
2023/09/15 05:36:00;;;;;;;7.88;7.07;;;;;;;;;;5015440;28;20064;-71
2023/09/15 05:38:28;;;;;;;11.10;6.85;;;;;;;;;;5031740;28;20415;-72
2023/09/15 05:40:55;;;;;;;11.10;7.18;;;;;;;;;;5031558;28;20052;-72
2023/09/15 05:43:23;;;;;;;14.48;7.13;;;;;;;;;;5031565;28;20096;-72
2023/09/15 05:45:51;;;;;;;13.38;7.20;;;;;;;;;;5032739;28;20037;-72
2023/09/15 05:48:22;;;;;;;11.45;7.68;;;;;;;;;;5032566;28;20041;-73
2023/09/15 05:50:51;;;;;;;15.05;7.40;;;;;;;;;;5032944;28;20103;-72
2023/09/15 05:53:19;;;;;;;24.30;7.78;;;;;;;;;;5032564;28;20042;-72
2023/09/15 05:55:46;;;;;;;12.25;7.35;;;;;;;;;;5033111;28;20075;-71
2023/09/15 05:58:14;;;;;;;12.77;7.50;;;;;;;;;;5032880;28;20399;-73
2023/09/15 06:00:44;;;;;;;12.00;7.13;;;;;;;;;;5032668;28;20077;-71
2023/09/15 06:03:12;;;;;;;12.40;7.40;;;;;;;;;;5032688;28;20542;-71
2023/09/15 06:05:39;;;;;;;15.45;7.55;;;;;;;;;;5032885;28;20044;-72
2023/09/15 06:08:08;;;;;;;11.77;7.28;;;;;;;;;;5032565;28;20071;-72
2023/09/15 06:10:36;;;;;;;10.52;7.13;;;;;;;;;;5032443;28;20045;-72
2023/09/15 06:13:04;;;;;;;13.20;7.80;;;;;;;;;;5032425;28;20050;-72
2023/09/15 06:15:31;;;;;;;11.30;7.43;;;;;;;;;;5032206;28;20545;-73
2023/09/15 06:17:59;;;;;;;10.57;7.15;;;;;;;;;;5032607;28;20499;-71
2023/09/15 06:20:30;;;;;;;12.95;7.07;;;;;;;;;;5032246;28;20037;-72
2023/09/15 06:22:58;;;;;;;11.52;6.75;;;;;;;;;;5032389;28;20491;-72
2023/09/15 06:25:25;;;;;;;11.77;7.30;;;;;;;;;;5032520;28;20041;-72
2023/09/15 06:27:53;;;;;;;11.50;7.28;;;;;;;;;;5032320;28;20041;-72
2023/09/15 06:30:30;;;;;;;12.40;7.60;;;;;;;;;;5032224;28;20479;-72
2023/09/15 06:32:58;;;;;;;17.88;7.60;;;;;;;;;;5032189;28;20038;-72
2023/09/15 06:35:25;;;;;;;12.05;7.80;;;;;;;;;;5032378;28;20450;-72
2023/09/15 06:37:53;;;;;;;10.65;7.25;;;;;;;;;;5031055;28;20511;-72
2023/09/15 06:40:20;;;;;;;20.88;8.48;;;;;;;;;;5032249;28;20049;-72
2023/09/15 06:42:48;;;;;;;13.13;7.65;;;;;;;;;;5030897;28;20042;-72
2023/09/15 06:45:16;;;;;;;14.48;7.90;;;;;;;;;;5032079;28;20050;-72
2023/09/15 06:47:44;;;;;;;14.98;7.47;;;;;;;;;;5031189;28;20046;-73
2023/09/15 06:50:11;;;;;;;16.33;8.27;;;;;;;;;;5032295;28;20061;-73
2023/09/15 06:52:39;;;;;;;21.30;8.32;;;;;;;;;;5032056;28;20104;-72
2023/09/15 06:55:07;;;;;;;10.75;7.80;;;;;;;;;;5032306;28;20075;-71
2023/09/15 06:57:35;;;;;;;17.05;8.05;;;;;;;;;;5032855;28;20483;-73
2023/09/15 07:00:03;;;;;;;10.90;7.00;;;;;;;;;;5036161;28;20083;-73
2023/09/15 07:02:31;;;;;;;13.38;7.72;;;;;;;;;;5035778;28;20041;-72
2023/09/15 07:04:58;;;;;;;9.68;6.85;;;;;;;;;;5036035;28;20076;-72
2023/09/15 07:07:26;;;;;;;14.15;7.68;;;;;;;;;;5036010;28;20502;-72
2023/09/15 07:09:54;;;;;;;12.18;6.88;;;;;;;;;;5034701;28;20510;-73
2023/09/15 07:12:22;;;;;;;11.73;7.78;;;;;;;;;;5035690;28;20044;-72
2023/09/15 07:14:50;;;;;;;14.20;8.13;;;;;;;;;;5035795;28;20069;-73
2023/09/15 07:17:18;;;;;;;11.82;7.47;;;;;;;;;;5034597;28;20049;-73
2023/09/15 07:19:47;;;;;;;13.10;7.22;;;;;;;;;;5034608;28;20046;-73
2023/09/15 07:22:14;;;;;;;11.00;7.03;;;;;;;;;;5035508;28;20037;-73
2023/09/15 07:24:42;;;;;;;11.13;7.45;;;;;;;;;;5035589;28;20041;-72
2023/09/15 07:27:09;;;;;;;9.73;7.00;;;;;;;;;;5035674;28;20458;-72
2023/09/15 07:29:38;;;;;;;11.27;7.38;;;;;;;;;;5035208;28;20495;-71
2023/09/15 07:32:06;;;;;;;17.27;6.95;;;;;;;;;;5035308;28;20033;-72
2023/09/15 07:34:34;;;;;;;9.60;5.95;;;;;;;;;;5035248;28;20056;-71
2023/09/15 07:37:02;;;;;;;9.45;6.43;;;;;;;;;;5035185;28;20387;-72
2023/09/15 07:39:30;;;;;;;15.73;7.07;;;;;;;;;;5035194;28;20057;-73
2023/09/15 07:41:58;;;;;;;11.45;5.90;;;;;;;;;;5035151;28;20073;-72
2023/09/15 07:44:25;;;;;;;8.30;6.07;;;;;;;;;;5035132;28;20124;-73
2023/09/15 07:46:53;;;;;;;20.52;7.22;;;;;;;;;;5034976;28;20372;-72
2023/09/15 07:49:21;;;;;;;9.15;6.07;;;;;;;;;;5034992;28;20456;-73
2023/09/15 07:51:50;;;;;;;11.98;6.55;;;;;;;;;;5033910;28;20084;-73
2023/09/15 07:54:19;;;;;;;10.73;6.22;;;;;;;;;;5034704;28;20443;-72
2023/09/15 07:56:46;;;;;;;12.10;6.35;;;;;;;;;;5034723;28;20068;-72
2023/09/15 07:59:14;;;;;;;9.45;6.55;;;;;;;;;;5035854;28;20048;-71
2023/09/15 08:01:42;;;;;;;8.73;6.35;;;;;;;;;;5034478;28;20059;-73
2023/09/15 08:04:10;;;;;;;13.55;6.18;;;;;;;;;;5034670;28;20077;-73
2023/09/15 08:06:37;;;;;;;9.57;6.07;;;;;;;;;;5034437;28;20049;-73
2023/09/15 08:09:05;;;;;;;12.65;6.15;;;;;;;;;;5034076;28;20053;-72
2023/09/15 08:11:37;;;;;;;12.32;6.13;;;;;;;;;;5034275;28;20407;-73
2023/09/15 08:14:05;;;;;;;13.10;5.97;;;;;;;;;;5034371;28;20550;-74
2023/09/15 08:16:32;;;;;;;12.55;6.18;;;;;;;;;;5034506;28;20041;-71
2023/09/15 08:19:00;;;;;;;7.32;5.00;;;;;;;;;;5033142;28;20053;-71
2023/09/15 08:21:28;;;;;;;10.02;5.30;;;;;;;;;;5034425;28;20434;-73
2023/09/15 08:23:57;;;;;;;10.07;5.22;;;;;;;;;;5034435;28;20395;-71
2023/09/15 08:26:25;;;;;;;7.35;4.88;;;;;;;;;;5034255;28;20045;-71
2023/09/15 08:29:04;;;;;;;8.98;4.40;;;;;;;;;;5034203;28;20447;-73
2023/09/15 08:31:32;;;;;;;5.78;4.53;;;;;;;;;;5034148;28;20459;-73
2023/09/15 08:34:00;;;;;;;10.25;5.03;;;;;;;;;;5034023;28;20372;-71
2023/09/15 08:36:27;;;;;;;9.80;4.40;;;;;;;;;;5033905;28;20040;-71
2023/09/15 08:38:55;;;;;;;10.95;5.07;;;;;;;;;;5032923;28;20045;-72
2023/09/15 08:41:25;;;;;;;9.63;4.47;;;;;;;;;;5033852;28;20053;-73
2023/09/15 08:43:55;;;;;;;9.63;4.60;;;;;;;;;;5033890;28;20042;-73
2023/09/15 08:46:23;;;;;;;7.85;4.50;;;;;;;;;;5034087;28;20045;-72
2023/09/15 08:48:51;;;;;;;6.75;4.07;;;;;;;;;;5033801;28;20487;-71
2023/09/15 08:51:20;;;;;;;8.52;4.72;;;;;;;;;;5033914;28;20037;-71
2023/09/15 08:53:48;;;;;;;8.73;3.95;;;;;;;;;;5033707;28;20495;-73
2023/09/15 08:56:16;;;;;;;7.40;4.43;;;;;;;;;;5032333;28;20067;-72
2023/09/15 08:58:44;;;;;;;5.18;3.90;;;;;;;;;;5033737;28;20037;-73
2023/09/15 09:01:13;;;;;;;14.75;4.40;;;;;;;;;;5032519;28;20111;-72
2023/09/15 09:03:42;;;;;;;7.90;4.78;;;;;;;;;;5033716;28;20548;-73
2023/09/15 09:06:11;;;;;;;7.07;4.93;;;;;;;;;;5015982;28;20052;-72
2023/09/15 09:08:42;;;;;;;6.13;4.78;;;;;;;;;;5033566;28;20049;-73
2023/09/15 09:11:10;;;;;;;8.13;4.85;;;;;;;;;;5033473;28;20483;-72
2023/09/15 09:13:38;;;;;;;9.18;4.80;;;;;;;;;;5033375;28;20052;-73
2023/09/15 09:16:15;;;;;;;12.57;4.80;;;;;;;;;;5033361;28;20065;-73
2023/09/15 09:18:43;;;;;;;7.60;4.07;;;;;;;;;;5033275;28;20045;-73
2023/09/15 09:21:10;;;;;;;14.98;6.10;;;;;;;;;;5033089;28;20087;-72
2023/09/15 09:23:38;;;;;;;8.65;5.03;;;;;;;;;;5033498;28;20047;-73
2023/09/15 09:26:12;;;;;;;6.97;3.92;;;;;;;;;;5032661;28;20440;-74
2023/09/15 09:28:39;;;;;;;;;;;;;;;;;;5033462;28;20107;-74
2023/09/15 09:31:09;;;;;;;6.82;4.30;;;;;;;;;;5007154;28;19921;-74
2023/09/15 09:33:37;;;;;;;5.70;4.38;;;;;;;;;;5009995;28;20043;-74
2023/09/15 09:36:17;;;;;;;10.02;6.45;;;;;;;;;;5029989;28;20041;-73
2023/09/15 09:38:46;;;;;;;10.30;4.75;;;;;;;;;;5032415;28;20088;-74
2023/09/15 09:41:16;;;;;;;10.90;5.22;;;;;;;;;;5028008;28;20124;-73
2023/09/15 09:43:48;;;;;;;15.38;5.05;;;;;;;;;;5032533;28;20460;-73
2023/09/15 09:46:17;;;;;;;8.88;5.15;;;;;;;;;;5032493;28;20046;-73
2023/09/15 09:48:45;;;;;;;9.65;5.78;;;;;;;;;;5032477;28;20037;-74
2023/09/15 09:51:16;;;;;;;9.75;5.00;;;;;;;;;;5032869;28;20049;-73
2023/09/15 09:53:44;;;;;;;9.45;5.03;;;;;;;;;;5032623;28;20493;-73
2023/09/15 09:56:11;;;;;;;10.13;5.35;;;;;;;;;;5033056;28;20041;-76
2023/09/15 09:58:41;;;;;;;9.10;4.70;;;;;;;;;;5033300;28;20037;-75
2023/09/15 10:01:11;;;;;;;10.20;5.40;;;;;;;;;;5033165;28;20055;-75
2023/09/15 10:03:40;;;;;;;9.70;5.55;;;;;;;;;;5032815;28;20053;-73
2023/09/15 10:06:08;;;;;;;9.27;4.90;;;;;;;;;;5032305;28;20037;-74
2023/09/15 10:08:39;;;;;;;7.22;5.15;;;;;;;;;;5032353;28;20446;-76
2023/09/15 10:11:08;;;;;;;7.60;4.72;;;;;;;;;;5032757;28;20440;-73
2023/09/15 10:13:36;;;;;;;8.02;5.57;;;;;;;;;;5032460;28;20052;-76
2023/09/15 10:16:04;;;;;;;6.82;6.13;;;;;;;;;;5032826;28;20488;-76
2023/09/15 10:18:32;;;;;;;8.05;5.00;;;;;;;;;;5032837;28;20049;-77
2023/09/15 10:20:59;;;;;;;11.02;4.65;;;;;;;;;;5033186;28;20052;-76
2023/09/15 10:23:30;;;;;;;9.23;5.60;;;;;;;;;;5030896;28;20673;-76
2023/09/15 10:25:58;;;;;;;10.10;5.00;;;;;;;;;;5033063;28;20506;-76
2023/09/15 10:28:25;;;;;;;10.60;4.40;;;;;;;;;;5032244;28;20499;-75
2023/09/15 10:31:09;;;;;;;9.03;5.27;;;;;;;;;;5032724;28;20476;-75
2023/09/15 10:33:40;;;;;;;6.88;5.03;;;;;;;;;;5033834;28;20056;-75
2023/09/15 10:36:11;;;;;;;7.85;5.72;;;;;;;;;;5036577;28;20045;-76
2023/09/15 10:38:40;;;;;;;7.38;5.07;;;;;;;;;;5036979;28;20384;-76
2023/09/15 10:41:10;;;;;;;6.75;4.95;;;;;;;;;;5036353;28;20092;-75
2023/09/15 10:43:51;;;;;;;7.70;5.40;;;;;;;;;;5036306;28;20103;-75
2023/09/15 10:46:18;;;;;;;5.20;4.70;;;;;;;;;;5035886;28;20499;-76
2023/09/15 10:48:47;;;;;;;7.00;4.93;;;;;;;;;;5036129;28;20040;-75
2023/09/15 10:51:22;;;;;;;10.13;5.22;;;;;;;;;;5036251;28;20045;-75
2023/09/15 10:53:51;;;;;;;23.40;6.18;;;;;;;;;;5035272;28;20399;-76
2023/09/15 10:56:20;;;;;;;12.00;5.50;;;;;;;;;;5036461;28;20042;-77
2023/09/15 10:58:48;;;;;;;7.40;5.30;;;;;;;;;;5036220;28;20096;-76
2023/09/15 11:01:16;;;;;;;7.60;4.88;;;;;;;;;;5036424;28;20449;-76
2023/09/15 11:03:45;;;;;;;14.23;6.90;;;;;;;;;;5036523;28;20037;-76
2023/09/15 11:06:13;;;;;;;9.43;6.18;;;;;;;;;;5036278;28;20049;-77
2023/09/15 11:08:41;;;;;;;8.82;5.40;;;;;;;;;;5034555;28;20136;-77
2023/09/15 11:11:11;;;;;;;13.07;5.05;;;;;;;;;;5035804;28;20049;-77
2023/09/15 11:13:40;;;;;;;10.38;5.65;;;;;;;;;;5036451;28;20041;-77
2023/09/15 11:16:09;;;;;;;8.10;4.80;;;;;;;;;;5036312;28;20075;-75
2023/09/15 11:18:38;;;;;;;6.30;4.93;;;;;;;;;;5035942;28;20065;-76
2023/09/15 11:21:06;;;;;;;7.45;5.10;;;;;;;;;;5035832;28;20376;-75
2023/09/15 11:23:35;;;;;;;13.05;6.35;;;;;;;;;;5034474;28;20044;-76
2023/09/15 11:26:07;;;;;;;17.30;5.72;;;;;;;;;;5035547;28;20045;-74
2023/09/15 11:28:54;;;;;;;9.02;4.75;;;;;;;;;;5035626;28;20376;-75
2023/09/15 11:31:22;;;;;;;6.93;5.10;;;;;;;;;;5035361;28;20113;-75
2023/09/15 11:33:52;;;;;;;10.52;5.80;;;;;;;;;;5035460;28;20037;-75
2023/09/15 11:36:23;;;;;;;36.58;7.18;;;;;;;;;;5035732;28;20042;-75
2023/09/15 11:38:51;;;;;;;11.35;6.28;;;;;;;;;;5036048;28;20048;-74
2023/09/15 11:41:19;;;;;;;10.07;5.80;;;;;;;;;;5033916;28;20131;-75
2023/09/15 11:43:47;;;;;;;7.90;5.40;;;;;;;;;;5034809;28;20037;-75
2023/09/15 11:46:14;;;;;;;9.23;5.50;;;;;;;;;;5034928;28;20523;-74
2023/09/15 11:48:48;;;;;;;6.97;5.40;;;;;;;;;;5035730;28;20407;-75
2023/09/15 11:51:17;;;;;;;7.88;5.53;;;;;;;;;;5035354;28;20080;-75
2023/09/15 11:53:47;;;;;;;12.95;5.53;;;;;;;;;;5035101;28;20419;-75
2023/09/15 11:56:19;;;;;;;9.52;5.65;;;;;;;;;;5035541;28;20060;-77
2023/09/15 11:58:49;;;;;;;7.00;5.40;;;;;;;;;;5036039;28;20484;-76
2023/09/15 12:01:18;;;;;;;7.70;5.35;;;;;;;;;;5035143;28;20100;-75
2023/09/15 12:03:50;;;;;;;12.63;5.90;;;;;;;;;;5035237;28;20487;-75
2023/09/15 12:06:18;;;;;;;8.48;5.70;;;;;;;;;;5035090;28;20399;-76
2023/09/15 12:08:49;;;;;;;10.82;5.90;;;;;;;;;;5034998;28;20088;-75
2023/09/15 12:11:17;;;;;;;8.10;5.13;;;;;;;;;;5034781;28;20061;-75
2023/09/15 12:13:51;;;;;;;8.35;5.93;;;;;;;;;;5034458;28;20045;-73
2023/09/15 12:16:20;;;;;;;8.20;5.57;;;;;;;;;;5034508;28;20128;-75
2023/09/15 12:18:48;;;;;;;8.13;5.32;;;;;;;;;;5034331;28;20051;-73
2023/09/15 12:21:16;;;;;;;8.68;5.72;;;;;;;;;;5034485;28;20046;-74
2023/09/15 12:23:44;;;;;;;13.45;7.43;;;;;;;;;;5033297;28;20048;-75
2023/09/15 12:26:12;;;;;;;11.35;8.20;;;;;;;;;;5034702;28;20045;-76
2023/09/15 12:28:42;;;;;;;13.15;8.48;;;;;;;;;;5034427;28;20041;-76
2023/09/15 12:31:17;;;;;;;11.70;7.20;;;;;;;;;;5034502;28;20043;-75
2023/09/15 12:33:45;;;;;;;9.05;6.18;;;;;;;;;;5034460;28;20049;-75
2023/09/15 12:36:14;;;;;;;11.10;6.15;;;;;;;;;;5034367;28;20047;-74
2023/09/15 12:38:41;;;;;;;12.95;6.00;;;;;;;;;;5034583;28;20065;-75
2023/09/15 12:41:09;;;;;;;9.75;6.50;;;;;;;;;;5034216;28;20060;-74
2023/09/15 12:43:36;;;;;;;9.70;5.93;;;;;;;;;;5033007;28;20125;-75
2023/09/15 12:46:04;;;;;;;10.10;5.78;;;;;;;;;;5034434;28;20033;-74
2023/09/15 12:48:32;;;;;;;14.98;6.45;;;;;;;;;;5031215;28;20042;-75
2023/09/15 12:51:00;;;;;;;14.70;7.25;;;;;;;;;;5011834;28;20365;-74
2023/09/15 12:53:27;;;;;;;8.50;5.88;;;;;;;;;;5010116;28;20052;-73
2023/09/15 12:55:56;;;;;;;12.00;6.82;;;;;;;;;;5007215;28;20068;-73
2023/09/15 12:58:24;;;;;;;8.07;5.82;;;;;;;;;;5008329;28;20550;-74
2023/09/15 13:00:51;;;;;;;14.38;6.30;;;;;;;;;;5007182;28;20046;-75
2023/09/15 13:03:22;;;;;;;10.15;6.40;;;;;;;;;;4994897;28;20241;-74
2023/09/15 13:05:51;;;;;;;8.40;5.70;;;;;;;;;;4994994;28;20054;-73
2023/09/15 13:08:19;;;;;;;7.03;5.18;;;;;;;;;;5008003;28;20365;-75
2023/09/15 13:10:46;;;;;;;7.82;5.40;;;;;;;;;;5003261;28;20125;-74
2023/09/15 13:13:14;;;;;;;13.52;6.03;;;;;;;;;;4999718;28;20053;-75
2023/09/15 13:15:42;;;;;;;12.60;6.35;;;;;;;;;;5007935;28;20107;-75
2023/09/15 13:18:10;;;;;;;9.88;6.38;;;;;;;;;;5007529;28;20066;-76
2023/09/15 13:20:37;;;;;;;9.60;6.00;;;;;;;;;;5008251;28;20144;-74
2023/09/15 13:23:05;;;;;;;14.73;6.28;;;;;;;;;;5008229;28;20108;-73
2023/09/15 13:25:32;;;;;;;9.35;6.00;;;;;;;;;;5008140;28;20073;-74
2023/09/15 13:28:00;;;;;;;7.30;5.28;;;;;;;;;;5001810;28;20756;-75
2023/09/15 13:30:27;;;;;;;12.13;6.05;;;;;;;;;;4988939;28;20132;-74
2023/09/15 13:32:55;;;;;;;5.97;5.18;;;;;;;;;;5004817;28;20780;-74
2023/09/15 13:35:23;;;;;;;24.00;6.45;;;;;;;;;;5008168;28;20053;-75
2023/09/15 13:37:50;;;;;;;10.40;6.40;;;;;;;;;;5007058;28;20034;-75
2023/09/15 13:40:18;;;;;;;19.20;6.00;;;;;;;;;;5007509;28;20152;-74
2023/09/15 13:42:45;;;;;;;6.47;5.55;;;;;;;;;;5006933;28;20149;-73
2023/09/15 13:45:14;;;;;;;9.80;5.85;;;;;;;;;;5007762;28;20057;-73
2023/09/15 13:47:42;;;;;;;9.32;5.88;;;;;;;;;;5007348;28;20064;-73
2023/09/15 13:50:10;;;;;;;9.73;5.40;;;;;;;;;;5039377;28;20523;-72
2023/09/15 13:52:38;;;;;;;11.15;6.47;;;;;;;;;;5007826;28;20049;-74
2023/09/15 13:55:05;;;;;;;9.13;6.28;;;;;;;;;;5007192;28;20050;-73
2023/09/15 13:57:33;;;;;;;9.65;5.57;;;;;;;;;;5007781;28;20443;-72
2023/09/15 14:00:00;;;;;;;71.90;8.80;;;;;;;;;;5007693;28;20087;-74
2023/09/15 14:02:31;;;;;;;10.77;5.47;;;;;;;;;;4998145;28;20056;-75
2023/09/15 14:05:01;;;;;;;10.55;5.22;;;;;;;;;;5000127;28;20416;-72
2023/09/15 14:07:29;;;;;;;10.25;5.95;;;;;;;;;;4987412;28;20077;-74
2023/09/15 14:09:56;;;;;;;8.45;5.15;;;;;;;;;;4988181;28;20042;-73
2023/09/15 14:12:24;;;;;;;13.45;9.38;;;;;;;;;;4988570;28;20049;-74
2023/09/15 14:14:51;;;;;;;9.80;5.93;;;;;;;;;;4988200;28;20195;-71
2023/09/15 14:17:19;;;;;;;8.93;6.10;;;;;;;;;;5018753;28;20042;-75
2023/09/15 14:19:47;;;;;;;8.55;5.38;;;;;;;;;;4987602;28;20068;-74
2023/09/15 14:22:15;;;;;;;13.63;6.03;;;;;;;;;;4987802;28;20038;-72
2023/09/15 14:24:42;;;;;;;15.27;5.85;;;;;;;;;;4988221;28;20071;-72
2023/09/15 14:27:10;;;;;;;12.95;8.05;;;;;;;;;;4987350;28;20515;-73
2023/09/15 14:29:37;;;;;;;15.02;10.77;;;;;;;;;;4987314;28;20034;-73
2023/09/15 14:32:05;;;;;;;29.45;8.98;;;;;;;;;;4987291;28;20414;-73
2023/09/15 14:34:33;;;;;;;10.85;6.00;;;;;;;;;;4987510;28;20054;-73
2023/09/15 14:37:00;;;;;;;9.27;6.20;;;;;;;;;;4987310;28;20039;-74
2023/09/15 14:39:28;;;;;;;10.73;5.88;;;;;;;;;;4987370;28;20046;-74
2023/09/15 14:41:56;;;;;;;9.77;7.28;;;;;;;;;;4987198;28;20050;-74